createdAt,value
2023-05-20T00:00:27.038Z,2.13
2023-05-20T00:02:57.877Z,2.67
2023-05-20T00:05:28.344Z,2.33
2023-05-20T00:07:59.836Z,2.50
2023-05-20T00:10:30.706Z,2.22
2023-05-20T00:13:01.051Z,2.35
2023-05-20T00:15:34.385Z,2.08
2023-05-20T00:18:05.260Z,2.85
2023-05-20T00:20:36.052Z,2.28
2023-05-20T00:23:06.413Z,2.58
2023-05-20T00:25:37.040Z,2.38
2023-05-20T00:28:07.728Z,2.13
2023-05-20T00:30:42.779Z,3.50
2023-05-20T00:33:13.481Z,2.85
2023-05-20T00:35:43.922Z,3.25
2023-05-20T00:38:14.842Z,2.78
2023-05-20T00:40:45.190Z,2.30
2023-05-20T00:43:15.544Z,2.35
2023-05-20T00:45:48.580Z,2.65
2023-05-20T00:48:19.003Z,2.33
2023-05-20T00:50:49.489Z,3.17
2023-05-20T00:53:21.442Z,2.47
2023-05-20T00:55:52.132Z,2.55
2023-05-20T00:58:22.523Z,3.03
2023-05-20T01:00:55.351Z,2.40
2023-05-20T01:03:26.008Z,2.85
2023-05-20T01:05:56.533Z,2.58
2023-05-20T01:08:28.861Z,3.38
2023-05-20T01:11:05.596Z,2.40
2023-05-20T01:13:38.905Z,2.60
2023-05-20T01:16:12.414Z,2.77
2023-05-20T01:18:43.272Z,2.80
2023-05-20T01:21:15.090Z,3.00
2023-05-20T01:23:48.211Z,2.75
2023-05-20T01:26:19.789Z,2.67
2023-05-20T01:28:51.377Z,2.67
2023-05-20T01:31:24.254Z,3.08
2023-05-20T01:33:58.678Z,3.15
2023-05-20T01:36:30.032Z,3.20
2023-05-20T01:39:06.035Z,2.90
2023-05-20T01:41:37.309Z,2.40
2023-05-20T01:44:07.775Z,3.50
2023-05-20T01:46:38.978Z,3.42
2023-05-20T01:49:09.393Z,2.88
2023-05-20T01:51:39.755Z,3.25
2023-05-20T01:54:12.711Z,3.17
2023-05-20T01:56:43.224Z,3.05
2023-05-20T01:59:13.762Z,3.22
2023-05-20T02:01:44.200Z,2.95
2023-05-20T02:04:14.788Z,3.83
2023-05-20T02:06:45.207Z,2.72
2023-05-20T02:09:17.902Z,3.22
2023-05-20T02:11:48.508Z,2.97
2023-05-20T02:14:18.848Z,3.10
2023-05-20T02:16:50.302Z,3.83
2023-05-20T02:19:24.011Z,3.60
2023-05-20T02:22:01.037Z,3.95
2023-05-20T02:24:33.997Z,3.38
2023-05-20T02:27:04.972Z,3.50
2023-05-20T02:29:37.538Z,3.67
2023-05-20T02:32:09.076Z,3.15
2023-05-20T02:34:39.509Z,3.15
2023-05-20T02:37:09.935Z,3.47
2023-05-20T02:39:43.638Z,3.83
2023-05-20T02:42:14.007Z,3.75
2023-05-20T02:44:44.418Z,4.85
2023-05-20T02:47:15.921Z,3.22
2023-05-20T02:49:46.923Z,3.40
2023-05-20T02:52:17.282Z,3.50
2023-05-20T02:54:50.342Z,3.40
2023-05-20T02:57:20.775Z,3.53
2023-05-20T02:59:51.145Z,3.75
2023-05-20T03:02:21.661Z,4.28
2023-05-20T03:04:54.169Z,3.70
2023-05-20T03:07:25.202Z,4.05
2023-05-20T03:09:59.239Z,4.05
2023-05-20T03:12:32.463Z,4.07
2023-05-20T03:15:03.970Z,4.28
2023-05-20T03:17:34.808Z,4.30
2023-05-20T03:20:08.418Z,3.97
2023-05-20T03:22:38.838Z,4.53
2023-05-20T03:25:12.720Z,4.18
2023-05-20T03:27:44.906Z,4.43
2023-05-20T03:30:15.804Z,3.92
2023-05-20T03:32:46.404Z,4.53
2023-05-20T03:35:16.925Z,4.10
2023-05-20T03:37:47.312Z,4.18
2023-05-20T03:40:21.069Z,4.43
2023-05-20T03:45:24.236Z,4.13
2023-05-20T03:48:04.507Z,4.28
2023-05-20T03:50:37.137Z,3.80
2023-05-20T03:53:07.619Z,4.63
2023-05-20T03:55:45.170Z,4.68
2023-05-20T03:58:17.015Z,4.68
2023-05-20T04:00:47.608Z,4.65
2023-05-20T04:03:18.249Z,4.18
2023-05-20T04:05:48.951Z,5.22
2023-05-20T04:08:26.090Z,4.40
2023-05-20T04:11:01.738Z,4.90
2023-05-20T04:13:32.198Z,4.80
2023-05-20T04:16:03.223Z,5.35
2023-05-20T04:18:33.926Z,4.85
2023-05-20T04:21:04.855Z,4.90
2023-05-20T04:23:35.390Z,4.80
2023-05-20T04:26:08.452Z,4.53
2023-05-20T04:28:39.174Z,4.72
2023-05-20T04:31:10.802Z,4.97
2023-05-20T04:33:42.720Z,5.20
2023-05-20T04:36:15.584Z,4.50
2023-05-20T04:38:46.171Z,4.93
2023-05-20T04:41:19.541Z,4.93
2023-05-20T04:43:50.110Z,5.35
2023-05-20T04:46:20.787Z,5.53
2023-05-20T04:48:51.742Z,5.30
2023-05-20T04:51:22.139Z,5.75
2023-05-20T04:53:54.657Z,5.80
2023-05-20T04:56:27.635Z,5.20
2023-05-20T04:58:58.988Z,5.90
2023-05-20T05:01:29.463Z,5.57
2023-05-20T05:03:59.978Z,5.75
2023-05-20T05:06:30.344Z,5.28
2023-05-20T05:09:02.250Z,5.70
2023-05-20T05:11:35.888Z,6.10
2023-05-20T05:14:06.338Z,5.50
2023-05-20T05:16:37.435Z,6.47
2023-05-20T05:19:08.917Z,6.15
2023-05-20T05:24:12.143Z,6.28
2023-05-20T05:26:45.182Z,5.53
2023-05-20T05:29:15.956Z,6.28
2023-05-20T05:31:46.384Z,5.80
2023-05-20T05:34:16.952Z,5.97
2023-05-20T05:36:47.443Z,5.80
2023-05-20T05:39:18.542Z,5.97
2023-05-20T05:41:51.502Z,5.60
2023-05-20T05:44:22.950Z,5.60
2023-05-20T05:46:53.393Z,6.60
2023-05-20T05:49:23.801Z,5.90
2023-05-20T05:51:54.543Z,5.55
2023-05-20T05:54:25.556Z,5.60
2023-05-20T05:56:59.306Z,5.75
2023-05-20T05:59:32.208Z,5.85
2023-05-20T06:02:02.684Z,5.55
2023-05-20T06:04:33.679Z,5.80
2023-05-20T06:07:04.131Z,5.60
2023-05-20T06:09:34.529Z,6.30
2023-05-20T06:12:08.643Z,5.32
2023-05-20T06:14:39.163Z,5.65
2023-05-20T06:17:09.567Z,5.10
2023-05-20T06:19:40.044Z,5.10
2023-05-20T06:22:10.608Z,5.03
2023-05-20T06:24:41.132Z,5.70
2023-05-20T06:27:14.081Z,5.18
2023-05-20T06:29:44.593Z,6.18
2023-05-20T06:32:14.987Z,5.05
2023-05-20T06:34:45.514Z,5.57
2023-05-20T06:37:16.410Z,5.65
2023-05-20T06:39:47.822Z,5.65
2023-05-20T06:42:20.883Z,5.15
2023-05-20T06:45:04.817Z,5.32
2023-05-20T06:47:41.244Z,5.45
2023-05-20T06:50:13.115Z,5.32
2023-05-20T06:52:43.704Z,5.20
2023-05-20T06:55:15.314Z,5.20
2023-05-20T06:57:49.154Z,4.90
2023-05-20T07:00:21.632Z,6.03
2023-05-20T07:02:52.219Z,5.45
2023-05-20T07:05:24.598Z,5.18
2023-05-20T07:07:55.117Z,4.95
2023-05-20T07:10:26.052Z,5.18
2023-05-20T07:12:59.645Z,4.85
2023-05-20T07:15:30.046Z,4.83
2023-05-20T07:18:00.598Z,4.22
2023-05-20T07:20:31.071Z,5.30
2023-05-20T07:23:05.106Z,4.65
2023-05-20T07:25:41.868Z,4.63
2023-05-20T07:28:15.105Z,4.75
2023-05-20T07:30:50.107Z,5.20
2023-05-20T07:33:26.660Z,5.85
2023-05-20T07:35:57.785Z,5.78
2023-05-20T07:38:28.387Z,4.57
2023-05-20T07:41:03.140Z,5.03
2023-05-20T07:43:36.477Z,5.45
2023-05-20T07:46:07.194Z,4.18
2023-05-20T07:48:37.666Z,4.75
2023-05-20T07:51:08.311Z,5.47
2023-05-20T07:53:38.832Z,4.57
2023-05-20T07:56:09.639Z,5.40
2023-05-20T07:58:44.607Z,4.50
2023-05-20T08:01:15.022Z,4.28
2023-05-20T08:03:45.787Z,4.65
2023-05-20T08:06:20.774Z,4.78
2023-05-20T08:08:51.584Z,4.82
2023-05-20T08:11:26.415Z,4.00
2023-05-20T08:13:59.351Z,4.55
2023-05-20T08:16:32.820Z,4.68
2023-05-20T08:19:03.648Z,4.30
2023-05-20T08:21:35.473Z,4.75
2023-05-20T08:24:06.008Z,4.70
2023-05-20T08:26:36.928Z,4.88
2023-05-20T08:29:10.097Z,4.32
2023-05-20T08:31:40.618Z,5.23
2023-05-20T08:34:11.211Z,4.50
2023-05-20T08:36:45.350Z,4.65
2023-05-20T08:39:16.938Z,4.40
2023-05-20T08:41:50.157Z,4.25
2023-05-20T08:44:25.692Z,5.43
2023-05-20T08:46:56.354Z,4.20
2023-05-20T08:49:26.949Z,3.88
2023-05-20T08:51:57.315Z,4.80
2023-05-20T08:54:29.935Z,4.07
2023-05-20T08:57:00.924Z,4.53
2023-05-20T08:59:34.101Z,4.60
2023-05-20T09:02:04.499Z,4.28
2023-05-20T09:04:34.983Z,4.15
2023-05-20T09:07:05.352Z,4.32
2023-05-20T09:09:36.958Z,4.43
2023-05-20T09:12:07.626Z,7.20
2023-05-20T09:14:40.592Z,4.07
2023-05-20T09:17:10.976Z,4.22
2023-05-20T09:19:41.722Z,3.65
2023-05-20T09:22:12.094Z,3.50
2023-05-20T09:24:44.156Z,4.57
2023-05-20T09:27:14.556Z,4.13
2023-05-20T09:29:48.708Z,4.03
2023-05-20T09:32:19.823Z,4.63
2023-05-20T09:34:50.601Z,4.05
2023-05-20T09:37:21.974Z,4.28
2023-05-20T09:39:59.780Z,4.90
2023-05-20T09:42:30.458Z,4.28
2023-05-20T09:45:04.428Z,3.92
2023-05-20T09:47:35.573Z,4.03
2023-05-20T09:50:07.415Z,4.25
2023-05-20T09:52:39.308Z,4.35
2023-05-20T09:55:10.587Z,4.28
2023-05-20T09:57:41.507Z,4.60
2023-05-20T10:00:17.671Z,5.18
2023-05-20T10:02:49.176Z,4.15
2023-05-20T10:05:21.215Z,4.05
2023-05-20T10:08:06.422Z,5.10
2023-05-20T10:10:41.109Z,4.15
2023-05-20T10:13:17.256Z,4.45
2023-05-20T10:15:58.204Z,4.35
2023-05-20T10:18:42.528Z,4.80
2023-05-20T10:21:19.117Z,4.68
2023-05-20T10:23:49.499Z,4.80
2023-05-20T10:26:19.636Z,8.80
2023-05-20T10:28:50.328Z,5.20
2023-05-20T10:31:25.965Z,4.70
2023-05-20T10:33:57.034Z,4.60
2023-05-20T10:36:28.085Z,4.55
2023-05-20T10:38:59.112Z,4.47
2023-05-20T10:41:30.883Z,4.70
2023-05-20T10:44:05.240Z,4.63
2023-05-20T10:46:59.866Z,4.35
2023-05-20T10:52:07.522Z,4.15
2023-05-20T10:54:39.535Z,5.68
2023-05-20T10:57:11.568Z,4.45
2023-05-20T10:59:42.737Z,4.47
2023-05-20T11:02:17.977Z,4.35
2023-05-20T11:04:48.599Z,4.68
2023-05-20T11:07:29.211Z,4.07
2023-05-20T11:09:59.670Z,4.50
2023-05-20T11:12:30.835Z,4.20
2023-05-20T11:15:01.218Z,4.55
2023-05-20T11:17:34.537Z,4.90
2023-05-20T11:20:05.572Z,4.82
2023-05-20T11:22:36.172Z,4.78
2023-05-20T11:25:09.063Z,17.48
2023-05-20T11:27:42.317Z,14.05
2023-05-20T11:30:16.817Z,5.22
2023-05-20T11:33:00.049Z,4.93
2023-05-20T11:35:31.606Z,5.15
2023-05-20T11:38:04.842Z,4.75
2023-05-20T11:40:49.732Z,4.80
2023-05-20T11:43:21.792Z,5.13
2023-05-20T11:45:59.993Z,4.95
2023-05-20T11:48:33.242Z,4.68
2023-05-20T11:51:03.619Z,4.88
2023-05-20T11:53:33.945Z,5.22
2023-05-20T11:56:05.070Z,4.32
2023-05-20T11:58:35.901Z,4.95
2023-05-20T12:01:21.176Z,6.20
2023-05-20T12:03:55.394Z,6.10
2023-05-20T12:06:26.347Z,8.00
2023-05-20T12:08:56.680Z,5.85
2023-05-20T12:11:27.311Z,5.28
2023-05-20T12:13:57.660Z,5.80
2023-05-20T12:16:28.166Z,11.82
2023-05-20T12:19:00.995Z,18.88
2023-05-20T12:21:32.213Z,5.30
2023-05-20T12:24:05.464Z,5.32
2023-05-20T12:26:36.183Z,4.63
2023-05-20T12:29:07.130Z,4.60
2023-05-20T12:31:37.535Z,4.55
2023-05-20T12:34:10.656Z,4.80
2023-05-20T12:36:41.057Z,4.38
2023-05-20T12:39:12.640Z,4.72
2023-05-20T12:41:42.966Z,4.68
2023-05-20T12:44:13.311Z,5.13
2023-05-20T12:46:44.119Z,5.25
2023-05-20T12:49:16.832Z,7.43
2023-05-20T12:51:47.143Z,4.78
2023-05-20T12:54:17.527Z,5.00
2023-05-20T12:56:48.936Z,8.43
2023-05-20T12:59:19.412Z,5.38
2023-05-20T13:01:49.774Z,4.93
2023-05-20T13:04:22.753Z,5.18
2023-05-20T13:06:53.074Z,4.45
2023-05-20T13:09:23.388Z,4.85
2023-05-20T13:11:53.434Z,4.70
2023-05-20T13:14:23.956Z,5.15
2023-05-20T13:16:55.677Z,5.00
2023-05-20T13:19:28.455Z,5.20
2023-05-20T13:21:59.175Z,4.47
2023-05-20T13:24:29.349Z,5.00
2023-05-20T13:27:00.779Z,5.05
2023-05-20T13:29:30.926Z,4.78
2023-05-20T13:32:02.186Z,4.53
2023-05-20T13:34:35.287Z,4.80
2023-05-20T13:37:05.366Z,4.78
2023-05-20T13:39:35.762Z,4.47
2023-05-20T13:42:06.148Z,4.53
2023-05-20T13:44:36.414Z,4.38
2023-05-20T13:47:06.620Z,4.82
2023-05-20T13:49:39.335Z,4.30
2023-05-20T13:52:09.709Z,4.57
2023-05-20T13:54:40.250Z,4.55
2023-05-20T13:57:10.758Z,4.38
2023-05-20T13:59:40.891Z,4.47
2023-05-20T14:02:11.352Z,4.53
2023-05-20T14:04:46.992Z,4.32
2023-05-20T14:07:17.512Z,4.65
2023-05-20T14:09:47.882Z,4.20
2023-05-20T14:12:18.095Z,5.13
2023-05-20T14:14:48.380Z,4.75
2023-05-20T14:17:18.807Z,4.88
2023-05-20T14:19:51.486Z,4.45
2023-05-20T14:22:21.810Z,3.90
2023-05-20T14:24:51.967Z,4.05
2023-05-20T14:27:22.383Z,4.60
2023-05-20T14:29:52.802Z,3.72
2023-05-20T14:32:22.941Z,4.80
2023-05-20T14:34:56.580Z,4.45
2023-05-20T14:37:28.172Z,4.03
2023-05-20T14:39:58.526Z,4.05
2023-05-20T14:42:29.055Z,5.05
2023-05-20T14:44:59.152Z,5.03
2023-05-20T14:47:29.308Z,4.55
2023-05-20T14:50:02.048Z,4.75
2023-05-20T14:52:32.750Z,5.85
2023-05-20T14:55:02.873Z,4.80
2023-05-20T14:57:32.964Z,5.47
2023-05-20T15:00:03.647Z,5.35
2023-05-20T15:02:35.241Z,4.70
2023-05-20T15:05:08.697Z,4.15
2023-05-20T15:07:39.068Z,4.25
2023-05-20T15:10:10.315Z,3.75
2023-05-20T15:12:40.679Z,4.30
2023-05-20T15:15:12.404Z,4.13
2023-05-20T15:17:42.897Z,4.28
2023-05-20T15:20:16.458Z,3.92
2023-05-20T15:22:48.320Z,3.70
2023-05-20T15:25:18.929Z,4.15
2023-05-20T15:27:49.292Z,4.63
2023-05-20T15:30:19.622Z,3.95
2023-05-20T15:32:50.119Z,4.80
2023-05-20T15:35:23.540Z,5.80
2023-05-20T15:37:54.660Z,4.05
2023-05-20T15:40:25.109Z,4.22
2023-05-20T15:42:57.297Z,4.30
2023-05-20T15:45:27.888Z,4.00
2023-05-20T15:47:58.358Z,4.10
2023-05-20T15:50:32.023Z,4.22
2023-05-20T15:55:32.278Z,3.67
2023-05-20T15:58:02.605Z,4.00
2023-05-20T16:00:33.316Z,3.83
2023-05-20T16:03:03.868Z,4.10
2023-05-20T16:05:37.577Z,3.88
2023-05-20T16:10:37.888Z,3.83
2023-05-20T16:13:08.219Z,3.85
2023-05-20T16:15:38.767Z,4.20
2023-05-20T16:18:09.198Z,3.92
2023-05-20T16:20:41.991Z,3.50
2023-05-20T16:23:12.485Z,3.60
2023-05-20T16:25:42.835Z,4.10
2023-05-20T16:28:13.359Z,4.57
2023-05-20T16:30:43.701Z,4.13
2023-05-20T16:33:14.076Z,4.70
2023-05-20T16:35:47.285Z,4.72
2023-05-20T16:38:17.588Z,4.47
2023-05-20T16:40:48.042Z,4.13
2023-05-20T16:43:18.439Z,4.20
2023-05-20T16:45:48.840Z,4.03
2023-05-20T16:48:19.426Z,5.88
2023-05-20T16:50:52.146Z,4.93
2023-05-20T16:53:22.547Z,4.83
2023-05-20T16:55:52.938Z,4.60
2023-05-20T16:58:23.319Z,4.43
2023-05-20T17:00:53.775Z,5.40
2023-05-20T17:03:24.169Z,4.45
2023-05-20T17:05:57.379Z,4.85
2023-05-20T17:08:27.803Z,4.22
2023-05-20T17:10:58.192Z,4.53
2023-05-20T17:13:28.528Z,4.28
2023-05-20T17:15:59.093Z,5.15
2023-05-20T17:18:29.440Z,4.30
2023-05-20T17:21:02.415Z,4.40
2023-05-20T17:23:32.763Z,4.90
2023-05-20T17:26:03.219Z,4.07
2023-05-20T17:28:33.563Z,4.55
2023-05-20T17:31:03.885Z,5.13
2023-05-20T17:33:34.298Z,4.43
2023-05-20T17:36:08.502Z,5.07
2023-05-20T17:38:38.979Z,4.70
2023-05-20T17:41:09.314Z,4.22
2023-05-20T17:43:39.670Z,4.63
2023-05-20T17:46:10.037Z,4.32
2023-05-20T17:48:40.506Z,4.57
2023-05-20T17:51:13.392Z,4.35
2023-05-20T17:53:43.811Z,4.60
2023-05-20T17:56:14.150Z,4.72
2023-05-20T17:58:45.210Z,4.50
2023-05-20T18:01:15.646Z,5.22
2023-05-20T18:03:46.541Z,4.53
2023-05-20T18:06:20.145Z,4.70
2023-05-20T18:08:50.599Z,5.25
2023-05-20T18:11:21.380Z,4.97
2023-05-20T18:13:51.734Z,4.07
2023-05-20T18:16:22.206Z,4.32
2023-05-20T18:18:52.660Z,4.78
2023-05-20T18:21:26.254Z,4.10
2023-05-20T18:23:56.890Z,4.03
2023-05-20T18:26:27.332Z,4.90
2023-05-20T18:28:57.669Z,4.80
2023-05-20T18:31:28.237Z,4.47
2023-05-20T18:33:58.573Z,4.55
2023-05-20T18:36:31.772Z,4.38
2023-05-20T18:39:02.226Z,4.30
2023-05-20T18:41:46.018Z,4.72
2023-05-20T18:44:17.219Z,4.70
2023-05-20T18:46:47.562Z,4.22
2023-05-20T18:49:17.956Z,4.75
2023-05-20T18:51:50.989Z,5.10
2023-05-20T18:54:21.456Z,5.30
2023-05-20T18:56:52.735Z,5.05
2023-05-20T18:59:25.181Z,5.47
2023-05-20T19:01:55.480Z,4.45
2023-05-20T19:04:26.232Z,5.65
2023-05-20T19:06:59.265Z,4.68
2023-05-20T19:09:29.630Z,4.90
2023-05-20T19:12:00.000Z,4.95
2023-05-20T19:14:30.528Z,4.80
2023-05-20T19:17:01.532Z,4.85
2023-05-20T19:19:32.103Z,4.85
2023-05-20T19:22:05.188Z,5.10
2023-05-20T19:24:35.524Z,5.77
2023-05-20T19:27:05.851Z,5.30
2023-05-20T19:29:36.220Z,5.57
2023-05-20T19:32:06.798Z,4.55
2023-05-20T19:34:37.163Z,4.80
2023-05-20T19:37:09.880Z,4.85
2023-05-20T19:39:40.485Z,5.55
2023-05-20T19:42:10.924Z,5.28
2023-05-20T19:44:41.249Z,5.40
2023-05-20T19:47:11.751Z,5.45
2023-05-20T19:49:42.328Z,5.10
2023-05-20T19:52:15.260Z,4.90
2023-05-20T19:54:45.645Z,5.00
2023-05-20T19:57:16.009Z,5.28
2023-05-20T19:59:46.485Z,5.35
2023-05-20T20:02:16.931Z,5.40
2023-05-20T20:04:47.436Z,5.20
2023-05-20T20:07:20.808Z,5.22
2023-05-20T20:09:52.077Z,5.15
2023-05-20T20:12:23.756Z,4.97
2023-05-20T20:14:54.487Z,5.43
2023-05-20T20:17:25.056Z,6.00
2023-05-20T20:19:55.845Z,6.03
2023-05-20T20:22:28.800Z,5.60
2023-05-20T20:24:59.153Z,5.97
2023-05-20T20:27:29.573Z,6.22
2023-05-20T20:29:59.978Z,6.20
2023-05-20T20:32:30.492Z,5.57
2023-05-20T20:35:01.008Z,5.60
2023-05-20T20:37:34.148Z,5.68
2023-05-20T20:40:13.557Z,5.80
2023-05-20T20:42:45.458Z,5.75
2023-05-20T20:45:15.620Z,5.75
2023-05-20T20:47:47.046Z,5.00
2023-05-20T20:50:17.430Z,5.20
2023-05-20T20:52:50.570Z,6.15
2023-05-20T20:55:21.024Z,6.30
2023-05-20T20:57:51.409Z,6.05
2023-05-20T21:00:23.644Z,5.45
2023-05-20T21:02:54.098Z,5.57
2023-05-20T21:05:26.766Z,6.25
2023-05-20T21:08:03.571Z,5.53
2023-05-20T21:10:36.173Z,6.95
2023-05-20T21:13:06.532Z,5.65
2023-05-20T21:15:37.175Z,5.90
2023-05-20T21:18:07.689Z,6.28
2023-05-20T21:20:38.072Z,6.55
2023-05-20T21:23:10.769Z,6.47
2023-05-20T21:25:40.912Z,6.38
2023-05-20T21:28:11.539Z,5.75
2023-05-20T21:30:41.954Z,5.80
2023-05-20T21:33:12.304Z,6.25
2023-05-20T21:35:42.715Z,6.47
2023-05-20T21:38:15.957Z,6.25
2023-05-20T21:40:46.302Z,6.80
2023-05-20T21:43:16.807Z,6.57
2023-05-20T21:45:47.163Z,6.35
2023-05-20T21:48:17.609Z,5.65
2023-05-20T21:50:48.170Z,6.40
2023-05-20T21:53:20.865Z,5.80
2023-05-20T21:55:51.402Z,5.68
2023-05-20T21:58:21.846Z,6.13
2023-05-20T22:00:52.223Z,5.78
2023-05-20T22:03:22.923Z,6.18
2023-05-20T22:05:53.373Z,6.00
2023-05-20T22:08:28.339Z,6.90
2023-05-20T22:10:59.610Z,7.03
2023-05-20T22:13:30.289Z,6.28
2023-05-20T22:16:01.591Z,6.60
2023-05-20T22:18:32.344Z,6.63
2023-05-20T22:21:02.701Z,6.70
2023-05-20T22:23:35.690Z,6.93
2023-05-20T22:26:06.548Z,6.23
2023-05-20T22:28:37.957Z,6.13
2023-05-20T22:31:08.564Z,6.82
2023-05-20T22:33:41.480Z,6.47
2023-05-20T22:36:12.040Z,5.97
2023-05-20T22:38:44.733Z,5.80
2023-05-20T22:41:15.087Z,5.68
2023-05-20T22:43:45.483Z,6.05
2023-05-20T22:46:16.018Z,7.03
2023-05-20T22:48:46.752Z,6.30
2023-05-20T22:51:17.216Z,6.03
2023-05-20T22:53:49.989Z,6.85
2023-05-20T22:56:21.423Z,6.82
2023-05-20T22:58:51.829Z,5.70
2023-05-20T23:01:22.385Z,7.35
2023-05-20T23:03:53.898Z,7.18
2023-05-20T23:06:24.312Z,6.63
2023-05-20T23:08:56.913Z,6.28
2023-05-20T23:11:27.259Z,6.22
2023-05-20T23:13:57.862Z,6.57
2023-05-20T23:16:29.766Z,6.22
2023-05-20T23:19:00.461Z,6.65
2023-05-20T23:21:31.855Z,6.72
2023-05-20T23:24:04.549Z,7.00
2023-05-20T23:26:37.904Z,6.93
2023-05-20T23:29:08.682Z,6.65
2023-05-20T23:31:40.035Z,6.43
2023-05-20T23:34:11.108Z,6.70
2023-05-20T23:36:42.270Z,6.68
2023-05-20T23:39:16.797Z,7.13
2023-05-20T23:41:48.549Z,6.28
2023-05-20T23:44:18.947Z,5.90
2023-05-20T23:46:49.777Z,6.78
2023-05-20T23:49:24.683Z,6.88
2023-05-20T23:51:55.029Z,6.32
2023-05-20T23:54:27.975Z,7.03
2023-05-20T23:56:58.364Z,6.35
2023-05-20T23:59:28.781Z,6.75
